createdAt,value
2023-01-11T00:00:25.777Z,90885.88
2023-01-11T00:02:59.933Z,90889.19
2023-01-11T00:05:26.575Z,90890.97
2023-01-11T00:07:53.279Z,90885.44
2023-01-11T00:10:20.026Z,90886.94
2023-01-11T00:12:47.071Z,90884.25
2023-01-11T00:15:13.884Z,90889.06
2023-01-11T00:17:41.544Z,90888.56
2023-01-11T00:20:10.092Z,90884.97
2023-01-11T00:22:36.915Z,90880.81
2023-01-11T00:25:03.965Z,90879.91
2023-01-11T00:27:30.661Z,90874.06
2023-01-11T00:29:57.390Z,90881.06
2023-01-11T00:32:24.246Z,90882.00
2023-01-11T00:34:50.967Z,90884.72
2023-01-11T00:37:17.562Z,90902.06
2023-01-11T00:39:44.209Z,90889.13
2023-01-11T00:42:32.168Z,90899.63
2023-01-11T00:45:17.666Z,90901.22
2023-01-11T00:48:01.000Z,90894.22
2023-01-11T00:50:30.244Z,90889.56
2023-01-11T00:52:57.647Z,90901.22
2023-01-11T00:55:24.451Z,90901.59
2023-01-11T00:57:51.140Z,90904.72
2023-01-11T01:00:19.052Z,90895.94
2023-01-11T01:02:46.087Z,90904.44
2023-01-11T01:05:12.831Z,90898.06
2023-01-11T01:07:39.515Z,90891.06
2023-01-11T01:10:08.063Z,90896.41
2023-01-11T01:12:53.576Z,90895.94
2023-01-11T01:15:20.443Z,90887.84
2023-01-11T01:17:47.258Z,90896.59
2023-01-11T01:20:14.827Z,90894.84
2023-01-11T01:22:41.883Z,90893.25
2023-01-11T01:25:08.822Z,90896.09
2023-01-11T01:27:35.583Z,90893.50
2023-01-11T01:30:02.315Z,90890.84
2023-01-11T01:32:29.015Z,90894.50
2023-01-11T01:34:55.658Z,90887.91
2023-01-11T01:37:22.249Z,90884.53
2023-01-11T01:39:48.883Z,90888.13
2023-01-11T01:42:16.745Z,90887.16
2023-01-11T01:45:04.255Z,90889.22
2023-01-11T01:47:38.697Z,90896.50
2023-01-11T01:50:12.573Z,90896.94
2023-01-11T01:52:39.225Z,90903.63
2023-01-11T01:55:08.517Z,90904.28
2023-01-11T01:57:35.594Z,90908.91
2023-01-11T02:00:05.590Z,90902.03
2023-01-11T02:02:32.229Z,90910.03
2023-01-11T02:04:58.913Z,90910.44
2023-01-11T02:07:28.887Z,90908.47
2023-01-11T02:10:10.636Z,90924.22
2023-01-11T02:12:40.489Z,90914.88
2023-01-11T02:15:08.033Z,90912.34
2023-01-11T02:17:34.697Z,90914.75
2023-01-11T02:20:08.586Z,90909.19
2023-01-11T02:22:47.280Z,90917.94
2023-01-11T02:25:32.086Z,90918.91
2023-01-11T02:28:01.464Z,90921.47
2023-01-11T02:30:46.914Z,90930.53
2023-01-11T02:33:23.355Z,90927.25
2023-01-11T02:36:13.624Z,90933.97
2023-01-11T02:38:46.424Z,90931.44
2023-01-11T02:41:59.226Z,90933.50
2023-01-11T02:44:46.704Z,90935.59
2023-01-11T02:47:24.863Z,90941.81
2023-01-11T02:50:03.781Z,90929.66
2023-01-11T02:53:01.263Z,90935.06
2023-01-11T02:55:31.124Z,90930.97
2023-01-11T02:57:58.974Z,90923.22
2023-01-11T03:00:25.634Z,90914.44
2023-01-11T03:03:08.223Z,90911.31
2023-01-11T03:05:35.854Z,90922.69
2023-01-11T03:08:05.498Z,90929.16
2023-01-11T03:11:02.429Z,90928.41
2023-01-11T03:13:39.452Z,90930.69
2023-01-11T03:16:14.901Z,90934.06
2023-01-11T03:19:06.078Z,90933.03
2023-01-11T03:21:58.674Z,90930.22
2023-01-11T03:24:33.860Z,90931.47
2023-01-11T03:27:06.102Z,90936.66
2023-01-11T03:29:49.555Z,90936.38
2023-01-11T03:32:16.371Z,90938.72
2023-01-11T03:34:55.175Z,90936.59
2023-01-11T03:37:50.728Z,90940.38
2023-01-11T03:40:22.886Z,90934.38
2023-01-11T03:43:10.100Z,90942.19
2023-01-11T03:45:47.455Z,90943.56
2023-01-11T03:48:20.268Z,90941.75
2023-01-11T03:50:46.962Z,90946.41
2023-01-11T03:53:13.542Z,90937.59
2023-01-11T03:55:41.583Z,90940.22
2023-01-11T03:58:09.084Z,90953.91
2023-01-11T04:00:36.347Z,90956.72
2023-01-11T04:03:03.145Z,90965.00
2023-01-11T04:05:29.796Z,90967.03
2023-01-11T04:07:56.508Z,90971.66
2023-01-11T04:10:23.335Z,90973.22
2023-01-11T04:12:50.055Z,90975.59
2023-01-11T04:15:16.893Z,90986.72
2023-01-11T04:17:43.585Z,90986.22
2023-01-11T04:20:10.724Z,90984.91
2023-01-11T04:22:37.466Z,90988.28
2023-01-11T04:25:04.386Z,90987.25
2023-01-11T04:27:30.980Z,90987.25
2023-01-11T04:29:57.675Z,90990.06
2023-01-11T04:32:24.431Z,90998.63
2023-01-11T04:34:51.131Z,90991.38
2023-01-11T04:37:17.719Z,90999.91
2023-01-11T04:39:44.387Z,91004.81
2023-01-11T04:42:21.164Z,91013.63
2023-01-11T04:44:49.062Z,91011.31
2023-01-11T04:47:20.202Z,91017.25
2023-01-11T04:49:47.090Z,91019.84
2023-01-11T04:52:15.000Z,91019.31
2023-01-11T04:54:41.775Z,91026.59
2023-01-11T04:57:10.831Z,91029.66
2023-01-11T04:59:37.516Z,91034.09
2023-01-11T05:02:04.254Z,91035.88
2023-01-11T05:04:31.046Z,91033.28
2023-01-11T05:06:57.870Z,91039.53
2023-01-11T05:09:24.441Z,91040.81
2023-01-11T05:11:51.131Z,91049.59
2023-01-11T05:14:17.980Z,91038.44
2023-01-11T05:16:44.702Z,91049.84
2023-01-11T05:19:11.642Z,91059.44
2023-01-11T05:21:40.062Z,91058.38
2023-01-11T05:24:08.443Z,91062.75
2023-01-11T05:26:36.835Z,91065.38
2023-01-11T05:29:05.728Z,91065.91
2023-01-11T05:31:34.796Z,91057.63
2023-01-11T05:34:01.514Z,91065.88
2023-01-11T05:36:28.363Z,91072.09
2023-01-11T05:38:55.723Z,91072.88
2023-01-11T05:41:23.632Z,91072.09
2023-01-11T05:44:09.296Z,91084.00
2023-01-11T05:46:37.082Z,91079.59
2023-01-11T05:49:03.885Z,91081.94
2023-01-11T05:51:30.905Z,91088.69
2023-01-11T05:53:57.825Z,91081.69
2023-01-11T05:56:24.519Z,91070.50
2023-01-11T05:58:51.338Z,91085.53
2023-01-11T06:01:18.831Z,91089.69
2023-01-11T06:03:45.837Z,91090.72
2023-01-11T06:06:13.040Z,91106.00
2023-01-11T06:08:39.669Z,91103.66
2023-01-11T06:11:06.356Z,91104.44
2023-01-11T06:13:33.962Z,91110.41
2023-01-11T06:16:19.550Z,91110.38
2023-01-11T06:18:48.332Z,91108.31
2023-01-11T06:21:15.264Z,91103.69
2023-01-11T06:23:44.153Z,91106.78
2023-01-11T06:26:15.259Z,91114.03
2023-01-11T06:28:42.095Z,91115.03
2023-01-11T06:31:08.902Z,91109.59
2023-01-11T06:33:36.301Z,91119.97
2023-01-11T06:36:08.063Z,91123.59
2023-01-11T06:38:35.239Z,91128.78
2023-01-11T06:41:02.760Z,91127.22
2023-01-11T06:43:29.641Z,91134.72
2023-01-11T06:45:56.511Z,91134.19
2023-01-11T06:48:23.434Z,91137.84
2023-01-11T06:50:50.811Z,91143.00
2023-01-11T06:53:17.419Z,91152.31
2023-01-11T06:55:44.244Z,91155.94
2023-01-11T06:58:10.926Z,91154.84
2023-01-11T07:00:37.845Z,91155.16
2023-01-11T07:03:05.304Z,91154.88
2023-01-11T07:05:35.572Z,91169.88
2023-01-11T07:08:02.544Z,91169.91
2023-01-11T07:10:29.325Z,91166.56
2023-01-11T07:12:55.999Z,91165.75
2023-01-11T07:15:22.674Z,91169.63
2023-01-11T07:17:54.981Z,91160.03
2023-01-11T07:20:22.366Z,91165.00
2023-01-11T07:22:49.305Z,91169.13
2023-01-11T07:25:15.903Z,91173.50
2023-01-11T07:27:42.597Z,91170.69
2023-01-11T07:30:09.997Z,91168.84
2023-01-11T07:32:36.768Z,91175.09
2023-01-11T07:35:03.476Z,91174.53
2023-01-11T07:37:32.767Z,91166.53
2023-01-11T07:39:59.471Z,91173.53
2023-01-11T07:42:44.872Z,91175.38
2023-01-11T07:45:11.595Z,91181.84
2023-01-11T07:47:38.368Z,91184.94
2023-01-11T07:50:05.513Z,91190.34
2023-01-11T07:52:32.196Z,91185.91
2023-01-11T07:55:02.650Z,91193.44
2023-01-11T07:57:30.279Z,91200.47
2023-01-11T07:59:56.937Z,91201.47
2023-01-11T08:02:23.721Z,91201.44
2023-01-11T08:04:50.569Z,91208.16
2023-01-11T08:07:17.129Z,91218.00
2023-01-11T08:09:43.764Z,91211.19
2023-01-11T08:12:28.710Z,91224.19
2023-01-11T08:14:55.490Z,91226.41
2023-01-11T08:17:22.205Z,91228.94
2023-01-11T08:19:48.867Z,91239.06
2023-01-11T08:22:15.555Z,91244.19
2023-01-11T08:24:42.314Z,91246.69
2023-01-11T08:27:09.043Z,91249.13
2023-01-11T08:29:35.750Z,91252.88
2023-01-11T08:32:02.444Z,91241.91
2023-01-11T08:34:29.208Z,91252.66
2023-01-11T08:37:01.916Z,91249.03
2023-01-11T08:39:31.043Z,91255.19
2023-01-11T08:42:01.185Z,91263.50
2023-01-11T08:44:35.264Z,91255.50
2023-01-11T08:47:02.996Z,91261.03
2023-01-11T08:49:30.642Z,91259.44
2023-01-11T08:51:57.433Z,91261.44
2023-01-11T08:54:25.004Z,91270.63
2023-01-11T08:56:51.693Z,91264.91
2023-01-11T08:59:19.974Z,91273.97
2023-01-11T09:01:47.308Z,91270.31
2023-01-11T09:04:24.216Z,91269.47
2023-01-11T09:06:52.944Z,91267.06
2023-01-11T09:09:19.688Z,91272.81
2023-01-11T09:11:55.236Z,91279.34
2023-01-11T09:14:22.696Z,91267.75
2023-01-11T09:16:49.398Z,91272.97
2023-01-11T09:19:16.016Z,91269.94
2023-01-11T09:21:43.198Z,91273.94
2023-01-11T09:24:09.890Z,91273.28
2023-01-11T09:26:37.500Z,91278.63
2023-01-11T09:29:05.061Z,91276.91
2023-01-11T09:31:31.814Z,91276.22
2023-01-11T09:33:58.593Z,91270.94
2023-01-11T09:36:27.800Z,91278.78
2023-01-11T09:38:57.424Z,91279.50
2023-01-11T09:41:27.319Z,91273.72
2023-01-11T09:44:03.929Z,91281.34
2023-01-11T09:46:30.652Z,91275.69
2023-01-11T09:48:59.551Z,91285.78
2023-01-11T09:51:35.895Z,91292.28
2023-01-11T09:54:06.007Z,91281.25
2023-01-11T09:56:51.233Z,91279.28
2023-01-11T09:59:44.204Z,91272.00
2023-01-11T10:02:24.677Z,91274.34
2023-01-11T10:05:31.957Z,91269.94
2023-01-11T10:18:30.325Z,91274.66
2023-01-11T10:18:30.457Z,91275.22
2023-01-11T10:19:57.956Z,91288.75
2023-01-11T10:22:32.538Z,91277.63
2023-01-11T10:25:11.609Z,91279.16
2023-01-11T10:27:40.401Z,91283.88
2023-01-11T10:30:35.906Z,91273.00
2023-01-11T10:33:18.723Z,91276.16
2023-01-11T10:36:06.040Z,91274.78
2023-01-11T10:39:01.376Z,91272.19
2023-01-11T10:41:57.535Z,91278.31
2023-01-11T10:44:35.775Z,91273.00
2023-01-11T10:47:02.488Z,91261.91
2023-01-11T10:49:49.751Z,91277.78
2023-01-11T10:52:29.324Z,91274.06
2023-01-11T10:54:57.482Z,91271.41
2023-01-11T10:57:27.107Z,91278.09
2023-01-11T11:00:16.949Z,91274.50
2023-01-11T11:02:49.317Z,91269.75
2023-01-11T11:05:27.874Z,91269.56
2023-01-11T11:08:31.981Z,91273.13
2023-01-11T11:11:05.824Z,91272.03
2023-01-11T11:13:38.503Z,91269.94
2023-01-11T11:16:23.277Z,91277.88
2023-01-11T11:18:54.459Z,91273.59
2023-01-11T11:21:28.506Z,91281.66
2023-01-11T11:23:55.970Z,91283.44
2023-01-11T11:26:23.246Z,91280.75
2023-01-11T11:29:01.220Z,91284.44
2023-01-11T11:31:28.526Z,91289.28
2023-01-11T11:33:55.232Z,91287.63
2023-01-11T11:36:21.938Z,91285.25
2023-01-11T11:39:18.863Z,91285.31
2023-01-11T11:42:07.065Z,91283.53
2023-01-11T11:44:33.811Z,91279.72
2023-01-11T11:47:05.419Z,91285.97
2023-01-11T11:49:36.235Z,91275.75
2023-01-11T11:52:23.709Z,91281.81
2023-01-11T11:54:52.934Z,91286.06
2023-01-11T11:57:19.515Z,91292.25
2023-01-11T11:59:47.802Z,91297.50
2023-01-11T12:02:26.483Z,91286.34
2023-01-11T12:04:53.262Z,91291.41
2023-01-11T12:07:21.135Z,91292.28
2023-01-11T12:09:57.564Z,91290.75
2023-01-11T12:12:27.369Z,91289.66
2023-01-11T12:15:15.967Z,91290.22
2023-01-11T12:17:42.683Z,91293.09
2023-01-11T12:20:21.332Z,91294.34
2023-01-11T12:22:48.615Z,91297.25
2023-01-11T12:25:15.336Z,91291.47
2023-01-11T12:28:01.363Z,91286.19
2023-01-11T12:30:52.172Z,91293.19
2023-01-11T12:33:44.407Z,91291.66
2023-01-11T12:36:32.721Z,91295.03
2023-01-11T12:39:17.968Z,91303.38
2023-01-11T12:42:26.142Z,91302.63
2023-01-11T12:45:04.762Z,91306.19
2023-01-11T12:47:40.568Z,91313.97
2023-01-11T12:50:25.022Z,91309.50
2023-01-11T12:53:00.714Z,91321.28
2023-01-11T12:55:58.060Z,91319.53
2023-01-11T12:58:57.557Z,91318.03
2023-01-11T13:01:39.304Z,91326.91
2023-01-11T13:04:40.686Z,91332.16
2023-01-11T13:07:21.066Z,91329.56
2023-01-11T13:10:06.622Z,91331.78
2023-01-11T13:12:49.372Z,91339.06
2023-01-11T13:15:21.444Z,91337.38
2023-01-11T13:17:51.815Z,91343.06
2023-01-11T13:20:27.439Z,91350.28
2023-01-11T13:23:26.041Z,91340.81
2023-01-11T13:25:52.784Z,91349.34
2023-01-11T13:28:23.890Z,91338.56
2023-01-11T13:30:50.915Z,91343.19
2023-01-11T13:33:20.733Z,91343.13
2023-01-11T13:36:23.131Z,91342.16
2023-01-11T13:38:56.584Z,91355.03
2023-01-11T13:41:25.820Z,91352.47
2023-01-11T13:44:06.811Z,91358.19
2023-01-11T13:46:48.079Z,91356.34
2023-01-11T13:49:18.456Z,91357.16
2023-01-11T13:51:58.765Z,91368.88
2023-01-11T13:54:50.409Z,91360.13
2023-01-11T13:57:57.079Z,91355.63
2023-01-11T14:00:38.708Z,91364.91
2023-01-11T14:03:11.386Z,91355.28
2023-01-11T14:06:03.109Z,91360.81
2023-01-11T14:09:08.224Z,91357.81
2023-01-11T14:11:44.537Z,91365.25
2023-01-11T14:14:29.535Z,91368.63
2023-01-11T14:17:02.409Z,91373.75
2023-01-11T14:19:46.420Z,91374.31
2023-01-11T14:22:20.576Z,91369.63
2023-01-11T14:25:05.648Z,91375.84
2023-01-11T14:28:09.775Z,91379.50
2023-01-11T14:31:04.522Z,91383.16
2023-01-11T14:33:37.176Z,91393.28
2023-01-11T14:36:03.767Z,91391.78
2023-01-11T14:39:06.338Z,91392.22
2023-01-11T14:41:41.925Z,91397.00
2023-01-11T14:44:18.000Z,91401.63
2023-01-11T14:47:00.851Z,91399.84
2023-01-11T14:49:51.792Z,91396.19
2023-01-11T14:52:31.121Z,91407.59
2023-01-11T14:55:07.000Z,91405.53
2023-01-11T14:57:41.204Z,91402.19
2023-01-11T15:00:19.837Z,91412.03
2023-01-11T15:02:47.219Z,91412.56
2023-01-11T15:05:44.982Z,91410.25
2023-01-11T15:08:14.702Z,91412.84
2023-01-11T15:10:55.804Z,91411.06
2023-01-11T15:13:49.972Z,91414.66
2023-01-11T15:16:38.020Z,91409.97
2023-01-11T15:19:09.501Z,91411.06
2023-01-11T15:21:41.020Z,91416.03
2023-01-11T15:24:18.513Z,91424.34
2023-01-11T15:26:48.498Z,91418.13
2023-01-11T15:29:41.858Z,91412.41
2023-01-11T15:32:33.198Z,91414.75
2023-01-11T15:35:31.567Z,91411.63
2023-01-11T15:38:07.493Z,91414.03
2023-01-11T15:40:36.880Z,91415.56
2023-01-11T15:43:12.569Z,91417.63
2023-01-11T15:46:16.703Z,91422.81
2023-01-11T15:48:59.797Z,91425.94
2023-01-11T15:51:26.332Z,91429.06
2023-01-11T15:54:01.293Z,91425.94
2023-01-11T15:56:31.459Z,91428.28
2023-01-11T15:59:19.914Z,91431.91
2023-01-11T16:02:08.067Z,91426.97
2023-01-11T16:05:06.269Z,91435.78
2023-01-11T16:07:54.852Z,91433.97
2023-01-11T16:10:59.174Z,91430.06
2023-01-11T16:13:37.956Z,91438.28
2023-01-11T16:16:26.877Z,91441.84
2023-01-11T16:18:57.979Z,91445.47
2023-01-11T16:21:31.765Z,91443.16
2023-01-11T16:23:58.512Z,91454.63
2023-01-11T16:26:25.230Z,91455.16
2023-01-11T16:28:54.810Z,91452.28
2023-01-11T16:31:21.542Z,91459.28
2023-01-11T16:33:49.819Z,91458.94
2023-01-11T16:36:21.292Z,91466.44
2023-01-11T16:39:00.045Z,91459.47
2023-01-11T16:41:28.588Z,91464.88
2023-01-11T16:44:06.319Z,91471.66
2023-01-11T16:47:03.998Z,91477.53
2023-01-11T16:49:30.603Z,91481.25
2023-01-11T16:52:00.432Z,91493.75
2023-01-11T16:54:31.812Z,91493.03
2023-01-11T16:56:59.455Z,91494.63
2023-01-11T16:59:30.527Z,91483.56
2023-01-11T17:01:59.101Z,91496.69
2023-01-11T17:04:30.689Z,91499.25
2023-01-11T17:06:58.100Z,91501.28
2023-01-11T17:09:26.026Z,91506.81
2023-01-11T17:11:52.909Z,91498.50
2023-01-11T17:14:56.928Z,91504.19
2023-01-11T17:17:23.625Z,91510.44
2023-01-11T17:19:50.640Z,91507.69
2023-01-11T17:22:22.528Z,91517.28
2023-01-11T17:25:00.266Z,91517.66
2023-01-11T17:27:35.736Z,91519.72
2023-01-11T17:30:02.850Z,91521.97
2023-01-11T17:32:37.162Z,91523.50
2023-01-11T17:35:11.113Z,91520.34
2023-01-11T17:37:37.518Z,91510.38
2023-01-11T17:40:04.580Z,91514.69
2023-01-11T17:42:49.787Z,91516.84
2023-01-11T17:45:23.898Z,91518.69
2023-01-11T17:47:51.824Z,91518.47
2023-01-11T17:50:22.504Z,91516.38
2023-01-11T17:52:54.687Z,91513.81
2023-01-11T17:55:23.257Z,91513.88
2023-01-11T17:58:08.556Z,91516.66
2023-01-11T18:00:35.334Z,91527.31
2023-01-11T18:03:10.628Z,91521.84
2023-01-11T18:05:37.263Z,91524.13
2023-01-11T18:08:09.647Z,91529.47
2023-01-11T18:10:38.164Z,91524.06
2023-01-11T18:13:04.788Z,91516.03
2023-01-11T18:15:34.170Z,91520.81
2023-01-11T18:18:01.053Z,91524.56
2023-01-11T18:20:40.693Z,91528.06
2023-01-11T18:23:18.779Z,91512.81
2023-01-11T18:25:46.151Z,91520.63
2023-01-11T18:28:20.919Z,91530.53
2023-01-11T18:30:54.450Z,91530.47
2023-01-11T18:33:23.398Z,91527.81
2023-01-11T18:35:51.910Z,91530.97
2023-01-11T18:38:20.044Z,91529.47
2023-01-11T18:40:47.124Z,91531.91
2023-01-11T18:43:13.844Z,91527.81
2023-01-11T18:45:41.349Z,91523.06
2023-01-11T18:48:12.072Z,91532.94
2023-01-11T18:50:39.259Z,91537.88
2023-01-11T18:53:05.958Z,91534.28
2023-01-11T18:55:32.581Z,91541.50
2023-01-11T18:57:59.257Z,91546.47
2023-01-11T19:00:26.091Z,91537.63
2023-01-11T19:02:52.704Z,91545.41
2023-01-11T19:05:19.358Z,91552.94
2023-01-11T19:07:46.096Z,91550.66
2023-01-11T19:10:17.548Z,91548.84
2023-01-11T19:12:44.807Z,91557.06
2023-01-11T19:15:12.476Z,91572.56
2023-01-11T19:17:39.363Z,91572.38
2023-01-11T19:20:09.143Z,91566.41
2023-01-11T19:22:37.013Z,91568.22
2023-01-11T19:25:03.989Z,91565.06
2023-01-11T19:27:30.672Z,91569.25
2023-01-11T19:29:58.222Z,91575.69
2023-01-11T19:32:25.841Z,91579.84
2023-01-11T19:34:53.042Z,91590.19
2023-01-11T19:37:19.727Z,91581.75
2023-01-11T19:39:46.539Z,91589.47
2023-01-11T19:42:13.210Z,91587.66
2023-01-11T19:44:40.056Z,91583.03
2023-01-11T19:47:12.564Z,91582.50
2023-01-11T19:49:40.190Z,91582.03
2023-01-11T19:52:13.269Z,91586.16
2023-01-11T19:54:43.796Z,91587.97
2023-01-11T19:57:15.524Z,91595.00
2023-01-11T19:59:42.330Z,91598.53
2023-01-11T20:02:13.596Z,91595.44
2023-01-11T20:04:40.791Z,91590.72
2023-01-11T20:07:07.989Z,91587.31
2023-01-11T20:09:37.520Z,91587.34
2023-01-11T20:12:08.370Z,91590.59
2023-01-11T20:14:35.298Z,91593.78
2023-01-11T20:17:02.184Z,91590.84
2023-01-11T20:19:28.990Z,91588.53
2023-01-11T20:21:56.572Z,91582.94
2023-01-11T20:24:29.706Z,91583.13
2023-01-11T20:26:57.597Z,91585.53
2023-01-11T20:29:24.257Z,91578.69
2023-01-11T20:31:51.015Z,91584.47
2023-01-11T20:34:17.862Z,91581.34
2023-01-11T20:36:44.649Z,91581.34
2023-01-11T20:39:11.387Z,91580.22
2023-01-11T20:41:47.033Z,91576.63
2023-01-11T20:44:16.152Z,91583.13
2023-01-11T20:46:43.062Z,91575.84
2023-01-11T20:49:09.721Z,91585.00
2023-01-11T20:51:36.573Z,91590.50
2023-01-11T20:54:04.401Z,91591.88
2023-01-11T20:56:31.145Z,91590.31
2023-01-11T20:58:57.789Z,91585.63
2023-01-11T21:01:27.418Z,91583.59
2023-01-11T21:04:01.808Z,91584.91
2023-01-11T21:06:28.792Z,91595.00
2023-01-11T21:08:56.327Z,91593.72
2023-01-11T21:11:23.108Z,91589.03
2023-01-11T21:13:53.528Z,91582.06
2023-01-11T21:16:20.540Z,91592.16
2023-01-11T21:18:47.338Z,91588.53
2023-01-11T21:21:17.844Z,91592.44
2023-01-11T21:23:45.418Z,91599.69
2023-01-11T21:26:12.539Z,91593.56
2023-01-11T21:28:39.955Z,91594.06
2023-01-11T21:31:07.173Z,91592.00
2023-01-11T21:33:33.958Z,91596.13
2023-01-11T21:36:04.648Z,91601.78
2023-01-11T21:38:32.194Z,91600.19
2023-01-11T21:41:09.188Z,91595.53
2023-01-11T21:43:36.036Z,91594.50
2023-01-11T21:46:03.156Z,91589.00
2023-01-11T21:48:29.853Z,91587.22
2023-01-11T21:50:56.667Z,91597.13
2023-01-11T21:53:23.361Z,91583.91
2023-01-11T21:55:50.052Z,91572.22
2023-01-11T21:58:19.811Z,91575.38
2023-01-11T22:00:46.575Z,91585.72
2023-01-11T22:03:13.231Z,91586.47
2023-01-11T22:05:39.966Z,91589.84
2023-01-11T22:08:06.658Z,91589.03
2023-01-11T22:10:33.805Z,91589.81
2023-01-11T22:13:00.662Z,91587.50
2023-01-11T22:15:27.300Z,91585.69
2023-01-11T22:17:54.043Z,91577.91
2023-01-11T22:20:20.676Z,91581.56
2023-01-11T22:22:47.385Z,91579.50
2023-01-11T22:25:14.039Z,91580.50
2023-01-11T22:27:40.998Z,91577.91
2023-01-11T22:30:08.443Z,91578.41
2023-01-11T22:32:35.131Z,91569.56
2023-01-11T22:35:01.799Z,91572.94
2023-01-11T22:37:28.491Z,91572.44
2023-01-11T22:39:55.111Z,91570.81
2023-01-11T22:42:21.800Z,91573.16
2023-01-11T22:44:48.643Z,91563.31
2023-01-11T22:47:15.454Z,91558.91
2023-01-11T22:49:42.065Z,91557.06
2023-01-11T22:52:08.757Z,91555.97
2023-01-11T22:54:35.562Z,91560.88
2023-01-11T22:57:02.212Z,91562.94
2023-01-11T22:59:28.936Z,91550.25
2023-01-11T23:01:55.580Z,91551.28
2023-01-11T23:04:22.341Z,91555.97
2023-01-11T23:06:49.119Z,91557.00
2023-01-11T23:09:16.869Z,91551.31
2023-01-11T23:12:02.383Z,91545.09
2023-01-11T23:14:30.219Z,91541.91
2023-01-11T23:16:59.282Z,91547.63
2023-01-11T23:19:25.908Z,91548.97
2023-01-11T23:21:52.649Z,91537.56
2023-01-11T23:24:19.249Z,91542.47
2023-01-11T23:26:46.188Z,91547.16
2023-01-11T23:29:13.102Z,91554.91
2023-01-11T23:31:39.863Z,91543.53
2023-01-11T23:34:09.503Z,91541.19
2023-01-11T23:36:37.699Z,91556.44
2023-01-11T23:39:05.577Z,91558.06
2023-01-11T23:41:50.742Z,91558.84
2023-01-11T23:44:17.614Z,91565.34
2023-01-11T23:47:03.567Z,91565.59
2023-01-11T23:49:30.828Z,91567.41
2023-01-11T23:51:57.590Z,91560.44
2023-01-11T23:54:29.279Z,91560.13
2023-01-11T23:56:56.483Z,91559.66
2023-01-11T23:59:23.095Z,91559.91
